createdAt,value
2023-01-17T00:02:14.823Z,98746.66
2023-01-17T00:05:00.437Z,98750.46
2023-01-17T00:07:46.099Z,98745.05
2023-01-17T00:10:14.677Z,98751.05
2023-01-17T00:13:03.949Z,98748.26
2023-01-17T00:15:31.206Z,98744.20
2023-01-17T00:17:58.204Z,98747.36
2023-01-17T00:20:45.786Z,98738.55
2023-01-17T00:23:32.975Z,98740.14
2023-01-17T00:26:05.539Z,98733.52
2023-01-17T00:31:28.387Z,98729.52
2023-01-17T00:33:55.432Z,98729.32
2023-01-17T00:36:22.200Z,98729.77
2023-01-17T00:38:48.972Z,98729.55
2023-01-17T00:41:15.775Z,98732.77
2023-01-17T00:44:01.465Z,98726.88
2023-01-17T00:46:47.246Z,98730.89
2023-01-17T00:49:32.879Z,98728.54
2023-01-17T00:52:18.596Z,98724.79
2023-01-17T00:55:04.102Z,98720.08
2023-01-17T00:57:49.711Z,98721.53
2023-01-17T01:00:37.713Z,98719.95
2023-01-17T01:03:30.038Z,98719.29
2023-01-17T01:06:15.746Z,98716.23
2023-01-17T01:09:01.332Z,98717.44
2023-01-17T01:11:46.906Z,98725.31
2023-01-17T01:14:32.568Z,98712.73
2023-01-17T01:17:18.188Z,98704.91
2023-01-17T01:20:03.824Z,98702.83
2023-01-17T01:22:49.442Z,98699.09
2023-01-17T01:25:35.978Z,98692.50
2023-01-17T01:28:25.549Z,98697.84
2023-01-17T01:31:11.373Z,98686.75
2023-01-17T01:33:38.184Z,98687.20
2023-01-17T01:36:07.039Z,98685.48
2023-01-17T01:38:33.775Z,98681.84
2023-01-17T01:41:00.573Z,98683.80
2023-01-17T01:43:48.396Z,98673.44
2023-01-17T01:46:18.509Z,98676.59
2023-01-17T01:48:53.295Z,98675.19
2023-01-17T01:51:24.121Z,98673.37
2023-01-17T01:53:52.647Z,98676.74
2023-01-17T01:56:20.568Z,98668.70
2023-01-17T01:58:48.786Z,98659.39
2023-01-17T02:01:15.794Z,98661.66
2023-01-17T02:03:43.074Z,98660.71
2023-01-17T02:06:25.422Z,98661.24
2023-01-17T02:08:52.243Z,98660.98
2023-01-17T02:11:19.121Z,98660.39
2023-01-17T02:13:45.922Z,98665.16
2023-01-17T02:16:52.950Z,98664.73
2023-01-17T02:19:38.997Z,98654.96
2023-01-17T02:22:33.430Z,98651.73
2023-01-17T02:25:38.321Z,98645.56
2023-01-17T02:28:35.066Z,98639.06
2023-01-17T02:31:04.664Z,98636.73
2023-01-17T02:33:43.419Z,98632.53
2023-01-17T02:36:43.027Z,98627.02
2023-01-17T02:39:25.184Z,98625.14
2023-01-17T02:42:13.735Z,98621.29
2023-01-17T02:44:42.065Z,98615.58
2023-01-17T02:47:29.058Z,98610.72
2023-01-17T02:50:09.621Z,98602.23
2023-01-17T02:52:45.774Z,98608.45
2023-01-17T02:55:44.008Z,98602.03
2023-01-17T02:58:19.607Z,98593.73
2023-01-17T03:01:25.528Z,98592.05
2023-01-17T03:04:00.416Z,98600.52
2023-01-17T03:06:30.201Z,98587.29
2023-01-17T03:08:57.055Z,98587.36
2023-01-17T03:11:23.886Z,98586.73
2023-01-17T03:13:55.984Z,98584.46
2023-01-17T03:16:24.174Z,98581.98
2023-01-17T03:18:51.147Z,98579.45
2023-01-17T03:21:18.054Z,98589.64
2023-01-17T03:23:44.806Z,98585.98
2023-01-17T03:26:11.612Z,98581.64
2023-01-17T03:28:38.546Z,98578.55
2023-01-17T03:31:05.979Z,98577.02
2023-01-17T03:33:32.874Z,98583.48
2023-01-17T03:35:59.678Z,98578.85
2023-01-17T03:38:27.085Z,98583.81
2023-01-17T03:40:53.929Z,98577.98
2023-01-17T03:43:20.933Z,98579.20
2023-01-17T03:45:54.297Z,98570.08
2023-01-17T03:48:21.678Z,98563.91
2023-01-17T03:50:51.641Z,98564.89
2023-01-17T03:53:18.542Z,98551.81
2023-01-17T03:55:46.199Z,98560.55
2023-01-17T03:58:12.955Z,98557.23
2023-01-17T04:00:39.820Z,98564.48
2023-01-17T04:03:06.545Z,98564.20
2023-01-17T04:05:33.473Z,98547.48
2023-01-17T04:08:00.323Z,98552.77
2023-01-17T04:10:27.118Z,98545.20
2023-01-17T04:12:53.907Z,98544.17
2023-01-17T04:15:20.708Z,98548.26
2023-01-17T04:17:47.684Z,98542.30
2023-01-17T04:20:22.158Z,98548.73
2023-01-17T04:22:49.024Z,98543.20
2023-01-17T04:25:15.854Z,98551.27
2023-01-17T04:27:42.738Z,98545.75
2023-01-17T04:30:10.642Z,98559.23
2023-01-17T04:32:37.524Z,98548.67
2023-01-17T04:35:04.892Z,98547.32
2023-01-17T04:37:31.748Z,98550.45
2023-01-17T04:39:58.525Z,98554.34
2023-01-17T04:42:25.429Z,98545.13
2023-01-17T04:44:52.271Z,98544.92
2023-01-17T04:47:19.096Z,98543.57
2023-01-17T04:49:45.845Z,98542.34
2023-01-17T04:52:12.656Z,98543.02
2023-01-17T04:54:39.486Z,98552.93
2023-01-17T04:57:06.495Z,98558.44
2023-01-17T04:59:33.572Z,98545.05
2023-01-17T05:02:00.392Z,98547.86
2023-01-17T05:04:27.229Z,98549.74
2023-01-17T05:06:55.178Z,98545.09
2023-01-17T05:09:22.034Z,98541.25
2023-01-17T05:11:48.881Z,98541.05
2023-01-17T05:14:15.718Z,98538.91
2023-01-17T05:16:42.510Z,98540.77
2023-01-17T05:19:09.319Z,98536.50
2023-01-17T05:21:36.188Z,98533.21
2023-01-17T05:24:03.542Z,98542.17
2023-01-17T05:26:30.422Z,98538.29
2023-01-17T05:28:57.204Z,98538.41
2023-01-17T05:31:24.080Z,98534.05
2023-01-17T05:33:50.970Z,98535.78
2023-01-17T05:36:18.899Z,98521.90
2023-01-17T05:38:47.218Z,98528.19
2023-01-17T05:41:14.264Z,98529.67
2023-01-17T05:43:41.028Z,98527.86
2023-01-17T05:46:07.992Z,98528.07
2023-01-17T05:48:34.999Z,98532.73
2023-01-17T05:51:01.936Z,98536.17
2023-01-17T05:53:28.780Z,98530.64
2023-01-17T05:55:55.625Z,98535.43
2023-01-17T05:58:22.933Z,98536.61
2023-01-17T06:00:49.925Z,98536.63
2023-01-17T06:03:16.764Z,98534.21
2023-01-17T06:05:45.073Z,98548.14
2023-01-17T06:08:11.863Z,98555.05
2023-01-17T06:10:38.650Z,98549.02
2023-01-17T06:13:13.663Z,98550.28
2023-01-17T06:15:41.229Z,98556.72
2023-01-17T06:18:12.902Z,98554.19
2023-01-17T06:20:39.919Z,98556.46
2023-01-17T06:23:08.216Z,98561.29
2023-01-17T06:25:39.236Z,98563.09
2023-01-17T06:28:09.112Z,98566.63
2023-01-17T06:30:35.976Z,98566.30
2023-01-17T06:33:03.581Z,98569.58
2023-01-17T06:35:30.808Z,98556.88
2023-01-17T06:37:59.853Z,98567.30
2023-01-17T06:40:27.691Z,98567.58
2023-01-17T06:42:54.513Z,98562.60
2023-01-17T06:45:21.323Z,98561.81
2023-01-17T06:47:48.200Z,98564.04
2023-01-17T06:50:15.343Z,98566.75
2023-01-17T06:52:42.399Z,98568.89
2023-01-17T06:55:10.025Z,98580.52
2023-01-17T06:57:37.258Z,98572.17
2023-01-17T07:00:05.139Z,98576.69
2023-01-17T07:02:32.063Z,98565.90
2023-01-17T07:04:58.959Z,98571.45
2023-01-17T07:07:25.801Z,98568.85
2023-01-17T07:09:52.748Z,98573.43
2023-01-17T07:12:19.708Z,98564.66
2023-01-17T07:14:46.558Z,98560.99
2023-01-17T07:17:13.472Z,98557.72
2023-01-17T07:19:40.529Z,98563.34
2023-01-17T07:22:07.567Z,98555.76
2023-01-17T07:24:36.497Z,98556.19
2023-01-17T07:27:03.559Z,98552.00
2023-01-17T07:29:30.565Z,98560.67
2023-01-17T07:31:57.421Z,98559.07
2023-01-17T07:34:24.238Z,98563.02
2023-01-17T07:36:51.283Z,98551.81
2023-01-17T07:39:18.230Z,98553.92
2023-01-17T07:41:45.156Z,98546.67
2023-01-17T07:44:12.075Z,98549.23
2023-01-17T07:46:39.165Z,98547.56
2023-01-17T07:49:06.104Z,98551.43
2023-01-17T07:51:32.821Z,98541.96
2023-01-17T07:53:59.619Z,98551.65
2023-01-17T07:56:26.400Z,98551.54
2023-01-17T07:58:53.378Z,98546.64
2023-01-17T08:01:20.335Z,98549.78
2023-01-17T08:03:50.851Z,98548.80
2023-01-17T08:06:20.270Z,98547.99
2023-01-17T08:08:47.172Z,98535.87
2023-01-17T08:11:14.452Z,98546.45
2023-01-17T08:13:41.921Z,98545.71
2023-01-17T08:16:12.376Z,98545.03
2023-01-17T08:18:39.834Z,98543.02
2023-01-17T08:21:13.229Z,98550.48
2023-01-17T08:23:40.346Z,98547.10
2023-01-17T08:26:07.248Z,98542.31
2023-01-17T08:28:34.695Z,98543.36
2023-01-17T08:31:09.281Z,98530.86
2023-01-17T08:33:36.524Z,98533.56
2023-01-17T08:36:03.551Z,98525.84
2023-01-17T08:38:30.317Z,98525.10
2023-01-17T08:41:00.828Z,98523.83
2023-01-17T08:43:27.993Z,98525.41
2023-01-17T08:45:56.266Z,98517.14
2023-01-17T08:48:23.950Z,98515.27
2023-01-17T08:50:50.722Z,98515.63
2023-01-17T08:53:18.472Z,98521.41
2023-01-17T08:55:45.315Z,98509.48
2023-01-17T08:58:12.132Z,98504.88
2023-01-17T09:00:39.848Z,98505.36
2023-01-17T09:03:10.647Z,98493.25
2023-01-17T09:05:37.564Z,98498.33
2023-01-17T09:08:04.760Z,98491.13
2023-01-17T09:10:31.685Z,98476.86
2023-01-17T09:12:58.592Z,98478.60
2023-01-17T09:15:25.949Z,98477.30
2023-01-17T09:17:56.740Z,98467.08
2023-01-17T09:20:24.679Z,98472.37
2023-01-17T09:22:51.596Z,98461.01
2023-01-17T09:25:18.723Z,98461.59
2023-01-17T09:27:46.965Z,98455.33
2023-01-17T09:30:14.426Z,98452.23
2023-01-17T09:32:41.516Z,98451.20
2023-01-17T09:35:08.762Z,98447.73
2023-01-17T09:37:37.959Z,98447.06
2023-01-17T09:40:05.965Z,98437.11
2023-01-17T09:42:34.254Z,98430.55
2023-01-17T09:45:01.141Z,98427.83
2023-01-17T09:47:45.065Z,98429.66
2023-01-17T09:50:31.546Z,98427.95
2023-01-17T09:53:02.345Z,98425.38
2023-01-17T09:55:34.836Z,98420.39
2023-01-17T09:58:18.058Z,98418.36
2023-01-17T10:01:28.536Z,98418.04
2023-01-17T10:04:33.412Z,98415.73
2023-01-17T10:07:27.981Z,98417.20
2023-01-17T10:10:16.253Z,98408.02
2023-01-17T10:13:03.898Z,98409.95
2023-01-17T10:15:55.514Z,98412.80
2023-01-17T10:18:30.481Z,98415.42
2023-01-17T10:21:03.712Z,98409.85
2023-01-17T10:23:30.519Z,98417.61
2023-01-17T10:26:06.965Z,98412.60
2023-01-17T10:28:37.533Z,98413.66
2023-01-17T10:31:10.204Z,98410.05
2023-01-17T10:33:57.928Z,98411.02
2023-01-17T10:36:26.816Z,98413.42
2023-01-17T10:39:01.418Z,98416.63
2023-01-17T10:41:34.833Z,98406.98
2023-01-17T10:44:07.169Z,98407.07
2023-01-17T10:46:38.577Z,98407.08
2023-01-17T10:49:05.619Z,98407.05
2023-01-17T10:52:00.583Z,98398.10
2023-01-17T10:54:48.158Z,98391.24
2023-01-17T10:57:26.002Z,98392.51
2023-01-17T10:59:53.393Z,98385.77
2023-01-17T11:02:24.314Z,98384.12
2023-01-17T11:04:54.691Z,98381.81
2023-01-17T11:07:26.318Z,98373.01
2023-01-17T11:09:55.152Z,98376.14
2023-01-17T11:12:30.567Z,98365.75
2023-01-17T11:14:58.815Z,98365.32
2023-01-17T11:17:25.804Z,98359.60
2023-01-17T11:19:52.740Z,98360.65
2023-01-17T11:22:19.903Z,98359.80
2023-01-17T11:24:53.273Z,98357.60
2023-01-17T11:27:28.317Z,98357.77
2023-01-17T11:30:18.189Z,98356.73
2023-01-17T11:32:53.071Z,98351.25
2023-01-17T11:35:21.954Z,98346.57
2023-01-17T11:37:57.179Z,98339.63
2023-01-17T11:40:26.937Z,98341.81
2023-01-17T11:43:01.177Z,98345.22
2023-01-17T11:45:29.892Z,98338.84
2023-01-17T11:48:23.405Z,98336.51
2023-01-17T11:50:57.928Z,98324.89
2023-01-17T11:53:38.207Z,98323.21
2023-01-17T11:56:18.350Z,98317.69
2023-01-17T11:58:45.985Z,98316.58
2023-01-17T12:01:33.251Z,98314.45
2023-01-17T12:04:09.116Z,98320.88
2023-01-17T12:06:56.452Z,98327.20
2023-01-17T12:09:35.667Z,98319.39
2023-01-17T12:12:53.314Z,98323.21
2023-01-17T12:15:40.110Z,98329.04
2023-01-17T12:19:01.120Z,98319.27
2023-01-17T12:21:43.081Z,98321.80
2023-01-17T12:24:34.639Z,98308.21
2023-01-17T12:27:10.508Z,98311.25
2023-01-17T12:29:44.535Z,98310.67
2023-01-17T12:32:49.423Z,98312.02
2023-01-17T12:35:41.946Z,98311.80
2023-01-17T12:38:18.093Z,98310.98
2023-01-17T12:40:58.141Z,98317.17
2023-01-17T12:43:37.263Z,98316.05
2023-01-17T12:46:23.651Z,98328.92
2023-01-17T12:49:57.132Z,98332.65
2023-01-17T12:52:35.964Z,98336.04
2023-01-17T12:55:06.794Z,98336.48
2023-01-17T12:57:56.011Z,98332.48
2023-01-17T13:00:24.892Z,98331.08
2023-01-17T13:03:30.694Z,98350.42
2023-01-17T13:05:57.459Z,98341.75
2023-01-17T13:08:42.164Z,98333.79
2023-01-17T13:11:19.628Z,98332.66
2023-01-17T13:13:50.755Z,98338.68
2023-01-17T13:16:23.553Z,98330.01
2023-01-17T13:18:50.513Z,98336.98
2023-01-17T13:21:32.659Z,98334.43
2023-01-17T13:24:01.404Z,98324.48
2023-01-17T13:26:48.249Z,98326.73
2023-01-17T13:29:33.691Z,98318.95
2023-01-17T13:32:14.703Z,98313.02
2023-01-17T13:35:01.642Z,98313.73
2023-01-17T13:37:33.618Z,98307.94
2023-01-17T13:40:06.562Z,98306.52
2023-01-17T13:42:48.475Z,98303.12
2023-01-17T13:45:29.414Z,98303.70
2023-01-17T13:48:11.944Z,98308.13
2023-01-17T13:50:41.347Z,98313.79
2023-01-17T13:53:39.040Z,98302.59
2023-01-17T13:56:17.927Z,98307.80
2023-01-17T13:58:46.638Z,98311.75
2023-01-17T14:01:13.838Z,98301.56
2023-01-17T14:03:49.838Z,98300.73
2023-01-17T14:06:49.804Z,98295.80
2023-01-17T14:09:29.083Z,98292.80
2023-01-17T14:12:06.355Z,98286.85
2023-01-17T14:14:35.161Z,98292.54
2023-01-17T14:17:22.184Z,98291.64
2023-01-17T14:20:18.607Z,98290.50
2023-01-17T14:22:52.939Z,98286.69
2023-01-17T14:25:20.500Z,98285.09
2023-01-17T14:27:53.131Z,98295.67
2023-01-17T14:30:20.207Z,98297.90
2023-01-17T14:33:05.282Z,98290.92
2023-01-17T14:35:39.935Z,98301.67
2023-01-17T14:38:20.000Z,98302.64
2023-01-17T14:40:54.632Z,98308.23
2023-01-17T14:43:23.043Z,98303.73
2023-01-17T14:45:56.285Z,98292.23
2023-01-17T14:48:23.325Z,98289.73
2023-01-17T14:50:51.798Z,98286.52
2023-01-17T14:53:21.397Z,98292.60
2023-01-17T14:55:48.841Z,98283.54
2023-01-17T14:58:17.287Z,98287.89
2023-01-17T15:00:44.283Z,98282.86
2023-01-17T15:03:11.634Z,98282.66
2023-01-17T15:05:42.915Z,98286.98
2023-01-17T15:08:14.238Z,98288.69
2023-01-17T15:10:48.033Z,98293.03
2023-01-17T15:13:17.342Z,98289.00
2023-01-17T15:15:44.770Z,98294.45
2023-01-17T15:18:14.351Z,98300.19
2023-01-17T15:20:41.598Z,98306.14
2023-01-17T15:23:13.238Z,98304.50
2023-01-17T15:25:39.971Z,98293.06
2023-01-17T15:28:09.476Z,98291.15
2023-01-17T15:30:36.457Z,98290.02
2023-01-17T15:33:03.288Z,98292.04
2023-01-17T15:35:30.915Z,98286.73
2023-01-17T15:37:57.966Z,98287.46
2023-01-17T15:40:27.413Z,98281.63
2023-01-17T15:42:56.999Z,98276.08
2023-01-17T15:45:27.917Z,98267.73
2023-01-17T15:47:56.989Z,98275.36
2023-01-17T15:50:30.898Z,98279.96
2023-01-17T15:53:01.322Z,98286.67
2023-01-17T15:55:35.173Z,98288.90
2023-01-17T15:58:02.241Z,98286.52
2023-01-17T16:00:31.955Z,98287.92
2023-01-17T16:02:58.948Z,98288.58
2023-01-17T16:05:30.094Z,98279.75
2023-01-17T16:08:39.219Z,98280.73
2023-01-17T16:11:07.045Z,98287.21
2023-01-17T16:13:46.724Z,98294.16
2023-01-17T16:16:22.617Z,98295.13
2023-01-17T16:18:55.279Z,98300.41
2023-01-17T16:21:24.680Z,98311.86
2023-01-17T16:23:51.528Z,98298.12
2023-01-17T16:26:18.342Z,98304.06
2023-01-17T16:28:45.332Z,98309.88
2023-01-17T16:31:12.059Z,98320.54
2023-01-17T16:33:38.869Z,98322.84
2023-01-17T16:36:06.137Z,98314.84
2023-01-17T16:38:32.994Z,98302.80
2023-01-17T16:41:02.767Z,98305.47
2023-01-17T16:43:29.654Z,98298.20
2023-01-17T16:45:57.466Z,98304.17
2023-01-17T16:48:24.079Z,98318.64
2023-01-17T16:50:52.133Z,98318.92
2023-01-17T16:53:24.881Z,98323.49
2023-01-17T16:55:54.946Z,98340.63
2023-01-17T16:58:22.387Z,98339.84
2023-01-17T17:00:49.442Z,98338.80
2023-01-17T17:03:17.231Z,98341.87
2023-01-17T17:05:46.493Z,98340.73
2023-01-17T17:08:14.789Z,98344.95
2023-01-17T17:10:41.544Z,98348.54
2023-01-17T17:13:09.104Z,98354.15
2023-01-17T17:15:40.803Z,98351.09
2023-01-17T17:18:14.346Z,98358.92
2023-01-17T17:20:41.021Z,98368.70
2023-01-17T17:23:09.361Z,98361.83
2023-01-17T17:25:36.978Z,98367.60
2023-01-17T17:28:04.781Z,98371.98
2023-01-17T17:30:31.770Z,98372.69
2023-01-17T17:32:59.027Z,98376.41
2023-01-17T17:35:26.724Z,98376.34
2023-01-17T17:37:55.533Z,98374.04
2023-01-17T17:40:23.317Z,98370.69
2023-01-17T17:42:50.500Z,98366.63
2023-01-17T17:45:17.247Z,98372.97
2023-01-17T17:47:44.046Z,98374.81
2023-01-17T17:50:12.669Z,98377.81
2023-01-17T17:52:39.339Z,98377.86
2023-01-17T17:55:10.612Z,98378.30
2023-01-17T17:57:37.907Z,98377.69
2023-01-17T18:00:05.477Z,98383.12
2023-01-17T18:02:34.261Z,98378.40
2023-01-17T18:05:01.672Z,98379.43
2023-01-17T18:07:32.142Z,98389.59
2023-01-17T18:09:59.092Z,98392.24
2023-01-17T18:12:25.998Z,98399.80
2023-01-17T18:14:54.703Z,98403.63
2023-01-17T18:17:21.627Z,98406.70
2023-01-17T18:19:49.831Z,98396.18
2023-01-17T18:22:17.475Z,98394.38
2023-01-17T18:24:44.182Z,98399.04
2023-01-17T18:27:11.081Z,98405.58
2023-01-17T18:29:42.502Z,98397.79
2023-01-17T18:32:09.293Z,98405.89
2023-01-17T18:34:40.740Z,98424.53
2023-01-17T18:37:09.513Z,98437.20
2023-01-17T18:39:36.355Z,98429.81
2023-01-17T18:42:03.194Z,98425.19
2023-01-17T18:44:30.315Z,98430.52
2023-01-17T18:47:01.368Z,98429.36
2023-01-17T18:49:28.675Z,98422.40
2023-01-17T18:51:55.678Z,98427.78
2023-01-17T18:54:22.435Z,98447.99
2023-01-17T18:56:50.576Z,98445.85
2023-01-17T18:59:18.185Z,98453.20
2023-01-17T19:01:45.717Z,98458.62
2023-01-17T19:04:13.397Z,98455.42
2023-01-17T19:06:41.618Z,98456.84
2023-01-17T19:09:08.430Z,98448.02
2023-01-17T19:11:36.206Z,98467.29
2023-01-17T19:14:03.979Z,98472.98
2023-01-17T19:16:34.103Z,98461.13
2023-01-17T19:19:03.132Z,98462.50
2023-01-17T19:21:30.384Z,98467.61
2023-01-17T19:23:57.142Z,98477.30
2023-01-17T19:26:25.999Z,98493.24
2023-01-17T19:28:53.478Z,98495.60
2023-01-17T19:31:24.870Z,98490.61
2023-01-17T19:33:53.559Z,98493.17
2023-01-17T19:36:25.273Z,98492.71
2023-01-17T19:39:03.917Z,98491.05
2023-01-17T19:41:35.344Z,98492.27
2023-01-17T19:44:04.093Z,98497.40
2023-01-17T19:46:31.890Z,98497.89
2023-01-17T19:48:59.136Z,98499.08
2023-01-17T19:51:26.738Z,98494.16
2023-01-17T19:53:54.061Z,98487.84
2023-01-17T19:56:25.547Z,98497.77
2023-01-17T19:58:52.646Z,98494.67
2023-01-17T20:01:26.874Z,98484.18
2023-01-17T20:03:57.507Z,98474.84
2023-01-17T20:06:29.001Z,98485.91
2023-01-17T20:08:55.949Z,98484.16
2023-01-17T20:11:24.416Z,98483.89
2023-01-17T20:13:54.365Z,98484.61
2023-01-17T20:16:21.397Z,98486.14
2023-01-17T20:18:48.451Z,98481.36
2023-01-17T20:21:19.931Z,98485.84
2023-01-17T20:23:47.521Z,98488.77
2023-01-17T20:26:18.235Z,98490.54
2023-01-17T20:28:45.904Z,98494.45
2023-01-17T20:31:17.340Z,98499.59
2023-01-17T20:33:45.124Z,98503.93
2023-01-17T20:36:14.601Z,98505.37
2023-01-17T20:38:44.745Z,98506.80
2023-01-17T20:41:17.756Z,98509.34
2023-01-17T20:43:49.008Z,98506.73
2023-01-17T20:46:17.193Z,98503.77
2023-01-17T20:48:45.410Z,98498.56
2023-01-17T20:51:14.916Z,98497.43
2023-01-17T20:53:43.214Z,98507.80
2023-01-17T20:56:13.951Z,98510.23
2023-01-17T20:58:41.376Z,98511.37
2023-01-17T21:01:09.408Z,98519.86
2023-01-17T21:03:37.209Z,98525.55
2023-01-17T21:06:11.008Z,98527.73
2023-01-17T21:08:38.693Z,98531.61
2023-01-17T21:11:05.859Z,98540.95
2023-01-17T21:13:33.229Z,98542.23
2023-01-17T21:15:59.887Z,98543.11
2023-01-17T21:18:27.523Z,98536.23
2023-01-17T21:20:54.037Z,98532.69
2023-01-17T21:23:23.533Z,98530.05
2023-01-17T21:25:55.658Z,98534.98
2023-01-17T21:28:24.923Z,98536.39
2023-01-17T21:30:52.830Z,98533.30
2023-01-17T21:33:20.730Z,98524.48
2023-01-17T21:35:47.481Z,98517.70
2023-01-17T21:38:16.224Z,98514.79
2023-01-17T21:40:43.205Z,98519.10
2023-01-17T21:43:09.969Z,98515.34
2023-01-17T21:45:37.816Z,98514.92
2023-01-17T21:48:06.286Z,98507.95
2023-01-17T21:50:34.005Z,98513.20
2023-01-17T21:53:02.306Z,98505.89
2023-01-17T21:55:47.726Z,98500.23
2023-01-17T21:58:34.490Z,98513.77
2023-01-17T22:01:15.105Z,98510.98
2023-01-17T22:03:42.097Z,98507.88
2023-01-17T22:06:09.842Z,98511.38
2023-01-17T22:08:36.697Z,98520.00
2023-01-17T22:11:07.722Z,98520.41
2023-01-17T22:13:34.939Z,98521.59
2023-01-17T22:16:04.964Z,98517.72
2023-01-17T22:18:37.697Z,98518.52
2023-01-17T22:21:16.368Z,98511.95
2023-01-17T22:23:56.513Z,98509.61
2023-01-17T22:26:29.815Z,98511.60
2023-01-17T22:28:59.393Z,98514.40
2023-01-17T22:31:26.770Z,98511.70
2023-01-17T22:33:54.707Z,98513.20
2023-01-17T22:36:21.924Z,98513.52
2023-01-17T22:38:48.658Z,98515.23
2023-01-17T22:41:19.371Z,98516.20
2023-01-17T22:43:52.572Z,98514.59
2023-01-17T22:46:21.887Z,98514.04
2023-01-17T22:48:48.819Z,98510.23
2023-01-17T22:51:17.299Z,98512.73
2023-01-17T22:53:45.374Z,98511.89
2023-01-17T22:56:22.339Z,98507.01
2023-01-17T22:58:49.630Z,98504.17
2023-01-17T23:01:21.337Z,98506.73
2023-01-17T23:03:56.213Z,98507.38
2023-01-17T23:06:29.781Z,98512.92
2023-01-17T23:08:58.323Z,98514.10
2023-01-17T23:11:38.266Z,98504.48
2023-01-17T23:14:17.145Z,98504.69
2023-01-17T23:17:09.125Z,98509.17
2023-01-17T23:19:36.473Z,98514.08
2023-01-17T23:22:19.827Z,98521.30
2023-01-17T23:24:52.655Z,98521.19
2023-01-17T23:27:39.269Z,98527.06
2023-01-17T23:30:36.816Z,98518.73
2023-01-17T23:33:13.859Z,98521.33
2023-01-17T23:35:42.464Z,98525.58
2023-01-17T23:38:30.686Z,98522.35
2023-01-17T23:41:23.608Z,98533.73
2023-01-17T23:43:54.919Z,98536.16
2023-01-17T23:46:23.407Z,98548.34
2023-01-17T23:48:50.546Z,98546.55
2023-01-17T23:51:17.305Z,98540.16
2023-01-17T23:53:44.325Z,98545.80
2023-01-17T23:56:17.785Z,98544.28
2023-01-17T23:58:44.462Z,98550.89
